Nearby METAR Reports

METAR is the scheduled surface weather observation taken hourly at civil and military airport locations.

METAR is an acronym from the French language and roughly translates as Aviation Routine Weather Report.

 

EGPL - Benbecula Island, United Kingdom
Distance from station: WNW 41mi, 66km
Updated: 13/11/2019 20:20
Mostly cloudy
Mostly cloudy
 Wind from NNE
Wind: NNE 14 mph , 22 km/h
Temperature: 4°C
Wind Chill: -1°C
Dew Point: 1°C
Humidity: 81%
Barometer: 999 hPa
Clouds: Mostly cloudy
Visibility: 6 miles , 10 km
Cloud details: Mostly cloudy 853 m
2019/11/13 20:20 EGPL 132020Z AUTO 02012KT 9999 BKN028/// 04/01 Q0999
EGPU - Tiree Island, United Kingdom
Distance from station: SSW 56mi, 90km
Updated: 13/11/2019 20:20
Clear
Clear
 Wind from ENE
Wind: ENE 9 mph , 15 km/h
Temperature: 1°C
Wind Chill: -3°C
Dew Point: -1°C
Humidity: 87%
Barometer: 997 hPa
Clouds: Clear
Visibility: 6 miles , 10 km
2019/11/13 20:20 EGPU 132020Z AUTO 07008KT 9999 NCD 01/M01 Q0997
 
EGEO - Oban Airport, United Kingdom
Distance from station: SE 65mi, 105km
Updated: 11/11/2019 15:50
NOT Current
Rain showers, Small hail, Mostly cloudy
Rain showers, Small hail, Mostly cloudy
 Wind from NW
Wind: NW 26 mph , 43 km/h
Temperature: 7°C
Wind Chill: 2°C
Dew Point: 5°C
Humidity: 87%
Barometer: 991 hPa
Summary: Rain showers, Small hail
Clouds: Mostly cloudy
Visibility: 5 miles , 8 km
Cloud details: Few Clouds 427 m
Mostly cloudy 640 m
2019/11/11 15:50 EGEO 111550Z 31023KT 8000 SHRAGS FEW014 BKN021 07/05 Q0991
EGPO - Stornoway, United Kingdom
Distance from station: 0 66mi, 106km
Updated: 13/11/2019 20:20
Mostly cloudy
Mostly cloudy
 Wind from NE
Wind: NE 14 mph , 22 km/h
Temperature: 5°C
Wind Chill: 1°C
Dew Point: 1°C
Humidity: 76%
Barometer: 1000 hPa
Clouds: Mostly cloudy
Visibility: 6 miles , 10 km
Cloud details: Partly cloudy 549 m
Mostly cloudy 762 m
Mostly cloudy 1128 m
2019/11/13 20:20 EGPO 132020Z AUTO 04012KT 9999 SCT018/// BKN025/// BKN037/// 05/01 Q1000
 
EGPE - Inverness/Dalcro, United Kingdom
Distance from station: ENE 88mi, 141km
Updated: 13/11/2019 20:20
Partly cloudy
Partly cloudy
 Wind from calm
Wind: Calm
Temperature: -2°C
Dew Point: -2°C
Humidity: 100%
Barometer: 1000 hPa
Clouds: Partly cloudy
Visibility: 6 miles , 10 km
Cloud details: Few Clouds 244 m
Partly cloudy 457 m
2019/11/13 20:20 EGPE 132020Z 00000KT 9999 FEW008 SCT015 M02/M02 Q1000
EGQA - Tain Range (saws, United Kingdom
Distance from station: ENE 97mi, 156km
Updated: 13/11/2019 15:50
NOT Current
Few Clouds
Few Clouds
 Wind from WNW
Wind: WNW 7 mph , 11 km/h
Clouds: Few Clouds
Visibility: 6 miles , 10 km
Cloud details: Few Clouds 366 m
Few Clouds 427 m
2019/11/13 15:50 EGQA 131550Z 29006KT 9999 FEW012 FEW014CB 05/// Q0997 RMK BLU
 
EGQK - Kinloss Raf, United Kingdom
Distance from station: ENE 107mi, 171km
Updated: 13/11/2019 19:50
Light rain, Mostly cloudy
Light rain, Mostly cloudy
 Wind from SE
Wind: SE 2 mph , 4 km/h
Temperature: 1°C
Dew Point: 1°C
Humidity: 100%
Barometer: 999 hPa
Summary: Light rain
Clouds: Mostly cloudy
Visibility: 6 miles , 10 km
Cloud details: Few Clouds 366 m
Mostly cloudy 640 m
2019/11/13 19:50 EGQK 131950Z AUTO 14002KT 9999 -RA FEW012/// BKN021/// 01/01 Q0999
EGPI - Islay/Port Ellen, United Kingdom
Distance from station: S 110mi, 177km
Updated: 13/11/2019 20:20
Partly cloudy
Partly cloudy
 Wind from varies
Wind: varies 3 mph , 6 km/h
Temperature: 5°C
Dew Point: 2°C
Humidity: 81%
Barometer: 996 hPa
Clouds: Partly cloudy
Visibility: 6 miles , 10 km
Cloud details: Partly cloudy 518 m
2019/11/13 20:20 EGPI 132020Z AUTO VRB03KT 9999 SCT017/// 05/02 Q0996
 
EGQS - Lossiemouth Raf, United Kingdom
Distance from station: ENE 117mi, 188km
Updated: 13/11/2019 19:50
Few Clouds
Few Clouds
 Wind from SSW
Wind: SSW 3 mph , 6 km/h
Temperature: 0°C
Dew Point: 0°C
Humidity: 100%
Barometer: 999 hPa
Clouds: Few Clouds
Visibility: 6 miles , 10 km
Cloud details: Few Clouds 427 m
2019/11/13 19:50 EGQS 131950Z 20003KT 9999 FEW014CB 00/M00 Q0999 TEMPO -SHRA SCT020 RMK BLU TEMPO WHT
EGPF - Glasgow Airport, United Kingdom
Distance from station: SE 121mi, 195km
Updated: 13/11/2019 20:20
Overcast
Overcast
 Wind from E
Wind: E 6 mph , 9 km/h
Temperature: 2°C
Wind Chill: -1°C
Dew Point: 1°C
Humidity: 93%
Barometer: 997 hPa
Clouds: Overcast
Visibility: 6 miles , 10 km
Cloud details: Overcast 1128 m
2019/11/13 20:20 EGPF 132020Z AUTO 08005KT 9999 OVC037 02/01 Q0997
 
EGEC - Campbeltown, United Kingdom
Distance from station: SSE 129mi, 207km
Updated: 13/11/2019 17:20
NOT Current
Few Clouds
Few Clouds
 Wind from E
Wind: E 17 mph , 28 km/h
Temperature: 5°C
Wind Chill: 1°C
Dew Point: 4°C
Humidity: 93%
Barometer: 992 hPa
Clouds: Few Clouds
Visibility: 6 miles , 10 km
Cloud details: Few Clouds 1128 m
2019/11/13 17:20 EGEC 131720Z 08015KT 050V110 9999 FEW037 05/04 Q0992
EGPN - Dundee/Riverside, United Kingdom
Distance from station: ESE 137mi, 221km
Updated: 13/11/2019 20:20
Mostly cloudy
Mostly cloudy
 Wind from calm
Wind: Calm
Temperature: 3°C
Dew Point: 1°C
Humidity: 87%
Barometer: 998 hPa
Clouds: Mostly cloudy
Visibility: 6 miles , 10 km
Cloud details: Partly cloudy 640 m
Mostly cloudy 914 m
2019/11/13 20:20 EGPN 132020Z 00000KT 9999 SCT021 BKN030 03/01 Q0998
 
EGPK - Prestwick(Civ/Na, United Kingdom
Distance from station: SSE 139mi, 224km
Updated: 13/11/2019 20:20
Few Clouds
Few Clouds
 Wind from NNE
Wind: NNE 12 mph , 19 km/h
Temperature: 3°C
Wind Chill: -2°C
Dew Point: 1°C
Humidity: 87%
Barometer: 996 hPa
Clouds: Few Clouds
Visibility: 6 miles , 10 km
Cloud details: Few Clouds 914 m
2019/11/13 20:20 EGPK 132020Z 03010KT 9999 FEW030 03/01 Q0996
EGQL - Leuchars Raf, United Kingdom
Distance from station: ESE 145mi, 233km
Updated: 13/11/2019 19:50
Rain showers, Partly cloudy
Rain showers, Partly cloudy
 Wind from NNE
Wind: NNE 8 mph , 13 km/h
Temperature: 3°C
Wind Chill: -1°C
Dew Point: 2°C
Humidity: 93%
Barometer: 997 hPa
Summary: Rain Showers
Clouds: Partly cloudy
Visibility: 6 miles , 9 km
Cloud details: Few Clouds 488 m
Partly cloudy 732 m
2019/11/13 19:50 EGQL 131950Z 03007KT 9000 SHRA FEW016 SCT024 03/02 Q0997 WHT
 
EGPH - Edinburgh Airpor, United Kingdom
Distance from station: SE 145mi, 234km
Updated: 13/11/2019 20:20
Clear
Clear
 Wind from NNW
Wind: NNW 2 mph , 4 km/h
Temperature: -1°C
Dew Point: -1°C
Humidity: 100%
Barometer: 997 hPa
Summary: Clear
Visibility: greater than 7 miles , 10 km
2019/11/13 20:20 EGPH 132020Z 34002KT CAVOK M01/M01 Q0997
EGPC - Wick, United Kingdom
Distance from station: NE 146mi, 234km
Updated: 13/11/2019 20:20
Few Clouds
Few Clouds
 Wind from NNE
Wind: NNE 7 mph , 11 km/h
Temperature: 2°C
Wind Chill: -1°C
Dew Point: -1°C
Humidity: 81%
Barometer: 999 hPa
Clouds: Few Clouds
Visibility: 6 miles , 10 km
Cloud details: Few Clouds 457 m
2019/11/13 20:20 EGPC 132020Z 03006KT 9999 FEW015 02/M01 Q0999

-

free counters
QR Code Twitter Scottish Weather Network UK Weather Network
Argyll House B & B

Argyll House B & B is situated in North West Skye and is the perfect base to see all that the Isle of Skye has to offer. We are just about full for 2019. Bookings are been taken for 2020.